sensor_id;sensor_type;location;lat;lon;timestamp;P1;durP1;ratioP1;P2;durP2;ratioP2
36501;SDS011;25393;46.108;3.390;2023-05-10T00:02:21;3.70;;;1.02;;
36501;SDS011;25393;46.108;3.390;2023-05-10T00:04:48;2.38;;;0.60;;
36501;SDS011;25393;46.108;3.390;2023-05-10T00:07:14;2.28;;;0.80;;
36501;SDS011;25393;46.108;3.390;2023-05-10T00:09:43;1.67;;;0.70;;
36501;SDS011;25393;46.108;3.390;2023-05-10T00:12:10;6.07;;;0.90;;
36501;SDS011;25393;46.108;3.390;2023-05-10T00:14:36;2.17;;;1.45;;
36501;SDS011;25393;46.108;3.390;2023-05-10T00:17:03;2.22;;;0.60;;
36501;SDS011;25393;46.108;3.390;2023-05-10T00:19:29;6.28;;;0.93;;
36501;SDS011;25393;46.108;3.390;2023-05-10T00:21:59;2.67;;;0.90;;
36501;SDS011;25393;46.108;3.390;2023-05-10T00:24:26;1.42;;;1.02;;
36501;SDS011;25393;46.108;3.390;2023-05-10T00:26:58;5.20;;;1.13;;
36501;SDS011;25393;46.108;3.390;2023-05-10T00:29:25;6.25;;;1.50;;
36501;SDS011;25393;46.108;3.390;2023-05-10T00:31:54;7.80;;;1.45;;
36501;SDS011;25393;46.108;3.390;2023-05-10T00:34:20;4.28;;;1.10;;
36501;SDS011;25393;46.108;3.390;2023-05-10T00:36:47;4.20;;;1.20;;
36501;SDS011;25393;46.108;3.390;2023-05-10T00:39:14;7.20;;;1.17;;
36501;SDS011;25393;46.108;3.390;2023-05-10T00:41:40;4.90;;;1.30;;
36501;SDS011;25393;46.108;3.390;2023-05-10T00:44:07;5.07;;;1.65;;
36501;SDS011;25393;46.108;3.390;2023-05-10T00:46:33;7.30;;;1.27;;
36501;SDS011;25393;46.108;3.390;2023-05-10T00:49:00;6.53;;;2.17;;
36501;SDS011;25393;46.108;3.390;2023-05-10T00:51:30;7.47;;;1.92;;
36501;SDS011;25393;46.108;3.390;2023-05-10T00:54:00;5.47;;;1.60;;
36501;SDS011;25393;46.108;3.390;2023-05-10T00:56:30;7.43;;;1.85;;
36501;SDS011;25393;46.108;3.390;2023-05-10T00:59:00;8.88;;;2.55;;
36501;SDS011;25393;46.108;3.390;2023-05-10T01:01:27;4.70;;;1.30;;
36501;SDS011;25393;46.108;3.390;2023-05-10T01:04:01;8.50;;;1.80;;
36501;SDS011;25393;46.108;3.390;2023-05-10T01:06:32;9.55;;;1.42;;
36501;SDS011;25393;46.108;3.390;2023-05-10T01:08:59;9.60;;;1.60;;
36501;SDS011;25393;46.108;3.390;2023-05-10T01:11:31;9.23;;;2.25;;
36501;SDS011;25393;46.108;3.390;2023-05-10T01:14:01;13.18;;;1.63;;
36501;SDS011;25393;46.108;3.390;2023-05-10T01:16:31;2.42;;;1.42;;
36501;SDS011;25393;46.108;3.390;2023-05-10T01:19:01;7.32;;;2.28;;
36501;SDS011;25393;46.108;3.390;2023-05-10T01:33:18;9.48;;;1.42;;
36501;SDS011;25393;46.108;3.390;2023-05-10T01:38:29;10.38;;;1.67;;
36501;SDS011;25393;46.108;3.390;2023-05-10T01:46:50;10.40;;;1.80;;
36501;SDS011;25393;46.108;3.390;2023-05-10T01:49:32;6.10;;;1.50;;
36501;SDS011;25393;46.108;3.390;2023-05-10T01:52:05;6.82;;;1.30;;
36501;SDS011;25393;46.108;3.390;2023-05-10T01:54:34;5.88;;;1.73;;
36501;SDS011;25393;46.108;3.390;2023-05-10T01:57:05;11.20;;;1.70;;
36501;SDS011;25393;46.108;3.390;2023-05-10T01:59:35;5.68;;;1.10;;
36501;SDS011;25393;46.108;3.390;2023-05-10T02:02:07;6.60;;;1.38;;
36501;SDS011;25393;46.108;3.390;2023-05-10T02:04:40;10.70;;;1.85;;
36501;SDS011;25393;46.108;3.390;2023-05-10T02:07:08;7.40;;;1.50;;
36501;SDS011;25393;46.108;3.390;2023-05-10T02:09:35;4.57;;;1.30;;
36501;SDS011;25393;46.108;3.390;2023-05-10T02:12:03;6.60;;;1.85;;
36501;SDS011;25393;46.108;3.390;2023-05-10T02:14:35;9.50;;;1.33;;
36501;SDS011;25393;46.108;3.390;2023-05-10T02:17:04;13.10;;;1.38;;
36501;SDS011;25393;46.108;3.390;2023-05-10T02:19:36;10.20;;;1.30;;
36501;SDS011;25393;46.108;3.390;2023-05-10T02:22:05;8.93;;;1.50;;
36501;SDS011;25393;46.108;3.390;2023-05-10T02:24:34;3.47;;;1.48;;
36501;SDS011;25393;46.108;3.390;2023-05-10T02:27:05;4.60;;;1.38;;
36501;SDS011;25393;46.108;3.390;2023-05-10T02:29:35;5.45;;;1.15;;
36501;SDS011;25393;46.108;3.390;2023-05-10T02:32:06;4.78;;;1.25;;
36501;SDS011;25393;46.108;3.390;2023-05-10T02:34:34;11.32;;;2.17;;
36501;SDS011;25393;46.108;3.390;2023-05-10T02:37:02;6.78;;;1.00;;
36501;SDS011;25393;46.108;3.390;2023-05-10T02:39:35;9.05;;;1.23;;
36501;SDS011;25393;46.108;3.390;2023-05-10T02:42:05;8.02;;;1.52;;
36501;SDS011;25393;46.108;3.390;2023-05-10T02:44:35;4.72;;;1.10;;
36501;SDS011;25393;46.108;3.390;2023-05-10T02:47:06;8.68;;;1.30;;
36501;SDS011;25393;46.108;3.390;2023-05-10T02:49:35;4.78;;;1.20;;
36501;SDS011;25393;46.108;3.390;2023-05-10T02:52:03;6.75;;;1.52;;
36501;SDS011;25393;46.108;3.390;2023-05-10T02:54:52;5.32;;;1.13;;
36501;SDS011;25393;46.108;3.390;2023-05-10T02:57:22;5.05;;;1.15;;
36501;SDS011;25393;46.108;3.390;2023-05-10T02:59:54;6.35;;;1.20;;
36501;SDS011;25393;46.108;3.390;2023-05-10T03:02:21;8.10;;;1.00;;
36501;SDS011;25393;46.108;3.390;2023-05-10T03:04:48;9.90;;;1.85;;
36501;SDS011;25393;46.108;3.390;2023-05-10T03:07:14;12.43;;;1.20;;
36501;SDS011;25393;46.108;3.390;2023-05-10T03:09:41;9.43;;;1.60;;
36501;SDS011;25393;46.108;3.390;2023-05-10T03:18:09;7.50;;;1.35;;
36501;SDS011;25393;46.108;3.390;2023-05-10T03:20:42;16.95;;;1.45;;
36501;SDS011;25393;46.108;3.390;2023-05-10T03:25:44;6.47;;;1.70;;
36501;SDS011;25393;46.108;3.390;2023-05-10T03:28:14;5.63;;;1.70;;
36501;SDS011;25393;46.108;3.390;2023-05-10T03:30:43;11.63;;;1.50;;
36501;SDS011;25393;46.108;3.390;2023-05-10T03:33:10;4.90;;;1.63;;
36501;SDS011;25393;46.108;3.390;2023-05-10T03:35:37;7.85;;;1.30;;
36501;SDS011;25393;46.108;3.390;2023-05-10T03:38:03;2.85;;;1.02;;
36501;SDS011;25393;46.108;3.390;2023-05-10T03:40:32;6.15;;;1.48;;
36501;SDS011;25393;46.108;3.390;2023-05-10T03:42:59;8.68;;;1.40;;
36501;SDS011;25393;46.108;3.390;2023-05-10T03:45:26;3.08;;;1.05;;
36501;SDS011;25393;46.108;3.390;2023-05-10T03:47:53;5.22;;;1.75;;
36501;SDS011;25393;46.108;3.390;2023-05-10T03:50:20;7.63;;;1.33;;
36501;SDS011;25393;46.108;3.390;2023-05-10T03:52:47;12.32;;;1.58;;
36501;SDS011;25393;46.108;3.390;2023-05-10T03:55:14;8.82;;;1.63;;
36501;SDS011;25393;46.108;3.390;2023-05-10T03:57:40;10.32;;;1.48;;
36501;SDS011;25393;46.108;3.390;2023-05-10T04:00:10;6.75;;;1.30;;
36501;SDS011;25393;46.108;3.390;2023-05-10T04:02:38;10.30;;;1.67;;
36501;SDS011;25393;46.108;3.390;2023-05-10T04:05:05;11.00;;;1.20;;
36501;SDS011;25393;46.108;3.390;2023-05-10T04:07:34;6.28;;;1.35;;
36501;SDS011;25393;46.108;3.390;2023-05-10T04:10:00;7.43;;;1.30;;
36501;SDS011;25393;46.108;3.390;2023-05-10T04:12:27;5.32;;;1.27;;
36501;SDS011;25393;46.108;3.390;2023-05-10T04:14:53;7.78;;;1.40;;
36501;SDS011;25393;46.108;3.390;2023-05-10T04:17:20;5.05;;;1.63;;
36501;SDS011;25393;46.108;3.390;2023-05-10T04:19:46;5.50;;;1.48;;
36501;SDS011;25393;46.108;3.390;2023-05-10T04:22:13;11.35;;;1.40;;
36501;SDS011;25393;46.108;3.390;2023-05-10T04:24:39;4.75;;;1.20;;
36501;SDS011;25393;46.108;3.390;2023-05-10T04:27:06;8.02;;;1.67;;
36501;SDS011;25393;46.108;3.390;2023-05-10T04:29:35;2.85;;;1.20;;
36501;SDS011;25393;46.108;3.390;2023-05-10T04:32:01;3.65;;;1.38;;
36501;SDS011;25393;46.108;3.390;2023-05-10T04:34:27;6.22;;;2.20;;
36501;SDS011;25393;46.108;3.390;2023-05-10T04:36:54;14.48;;;2.30;;
36501;SDS011;25393;46.108;3.390;2023-05-10T04:39:21;6.07;;;2.58;;
36501;SDS011;25393;46.108;3.390;2023-05-10T04:41:47;8.82;;;2.08;;
36501;SDS011;25393;46.108;3.390;2023-05-10T04:44:14;7.40;;;2.67;;
36501;SDS011;25393;46.108;3.390;2023-05-10T04:46:40;4.47;;;1.10;;
36501;SDS011;25393;46.108;3.390;2023-05-10T04:49:07;6.35;;;1.33;;
36501;SDS011;25393;46.108;3.390;2023-05-10T04:51:42;6.32;;;1.65;;
36501;SDS011;25393;46.108;3.390;2023-05-10T04:54:12;14.30;;;1.75;;
36501;SDS011;25393;46.108;3.390;2023-05-10T04:56:38;6.85;;;1.23;;
36501;SDS011;25393;46.108;3.390;2023-05-10T04:59:08;6.85;;;1.30;;
36501;SDS011;25393;46.108;3.390;2023-05-10T05:01:39;4.88;;;1.50;;
36501;SDS011;25393;46.108;3.390;2023-05-10T05:04:12;4.40;;;1.65;;
36501;SDS011;25393;46.108;3.390;2023-05-10T05:06:42;5.95;;;1.50;;
36501;SDS011;25393;46.108;3.390;2023-05-10T05:09:09;5.28;;;1.60;;
36501;SDS011;25393;46.108;3.390;2023-05-10T05:11:39;8.20;;;1.27;;
36501;SDS011;25393;46.108;3.390;2023-05-10T05:14:10;12.13;;;1.38;;
36501;SDS011;25393;46.108;3.390;2023-05-10T05:16:37;5.80;;;1.45;;
36501;SDS011;25393;46.108;3.390;2023-05-10T05:19:04;5.88;;;1.73;;
36501;SDS011;25393;46.108;3.390;2023-05-10T05:21:31;7.45;;;1.88;;
36501;SDS011;25393;46.108;3.390;2023-05-10T05:23:58;5.65;;;1.00;;
36501;SDS011;25393;46.108;3.390;2023-05-10T05:26:26;4.28;;;1.13;;
36501;SDS011;25393;46.108;3.390;2023-05-10T05:28:52;8.65;;;1.60;;
36501;SDS011;25393;46.108;3.390;2023-05-10T05:31:20;2.25;;;1.40;;
36501;SDS011;25393;46.108;3.390;2023-05-10T05:33:47;9.90;;;1.42;;
36501;SDS011;25393;46.108;3.390;2023-05-10T05:36:14;13.15;;;1.42;;
36501;SDS011;25393;46.108;3.390;2023-05-10T05:38:40;6.35;;;1.50;;
36501;SDS011;25393;46.108;3.390;2023-05-10T05:41:09;10.57;;;2.20;;
36501;SDS011;25393;46.108;3.390;2023-05-10T05:43:39;6.03;;;1.80;;
36501;SDS011;25393;46.108;3.390;2023-05-10T05:46:05;5.32;;;1.23;;
36501;SDS011;25393;46.108;3.390;2023-05-10T05:48:32;6.55;;;1.50;;
36501;SDS011;25393;46.108;3.390;2023-05-10T05:50:59;8.45;;;1.48;;
36501;SDS011;25393;46.108;3.390;2023-05-10T05:53:25;7.15;;;2.22;;
36501;SDS011;25393;46.108;3.390;2023-05-10T05:55:55;10.07;;;1.52;;
36501;SDS011;25393;46.108;3.390;2023-05-10T05:58:24;3.95;;;1.17;;
36501;SDS011;25393;46.108;3.390;2023-05-10T06:00:51;4.20;;;1.17;;
36501;SDS011;25393;46.108;3.390;2023-05-10T06:03:18;4.13;;;1.00;;
36501;SDS011;25393;46.108;3.390;2023-05-10T06:05:45;7.30;;;1.60;;
36501;SDS011;25393;46.108;3.390;2023-05-10T06:08:14;5.25;;;1.17;;
36501;SDS011;25393;46.108;3.390;2023-05-10T06:10:41;14.38;;;1.83;;
36501;SDS011;25393;46.108;3.390;2023-05-10T06:13:14;7.68;;;1.63;;
36501;SDS011;25393;46.108;3.390;2023-05-10T06:15:44;6.22;;;1.33;;
36501;SDS011;25393;46.108;3.390;2023-05-10T06:18:11;5.20;;;1.33;;
36501;SDS011;25393;46.108;3.390;2023-05-10T06:20:41;3.97;;;1.55;;
36501;SDS011;25393;46.108;3.390;2023-05-10T06:23:11;6.10;;;1.42;;
36501;SDS011;25393;46.108;3.390;2023-05-10T06:25:38;6.43;;;1.85;;
36501;SDS011;25393;46.108;3.390;2023-05-10T06:28:05;6.78;;;1.63;;
36501;SDS011;25393;46.108;3.390;2023-05-10T06:30:32;6.60;;;1.55;;
36501;SDS011;25393;46.108;3.390;2023-05-10T06:32:58;11.85;;;1.40;;
36501;SDS011;25393;46.108;3.390;2023-05-10T06:35:25;10.00;;;1.83;;
36501;SDS011;25393;46.108;3.390;2023-05-10T06:37:52;5.88;;;1.55;;
36501;SDS011;25393;46.108;3.390;2023-05-10T06:40:19;9.77;;;1.08;;
36501;SDS011;25393;46.108;3.390;2023-05-10T06:42:46;6.60;;;1.33;;
36501;SDS011;25393;46.108;3.390;2023-05-10T06:45:16;4.65;;;1.30;;
36501;SDS011;25393;46.108;3.390;2023-05-10T06:47:46;6.38;;;2.05;;
36501;SDS011;25393;46.108;3.390;2023-05-10T06:50:16;9.77;;;1.50;;
36501;SDS011;25393;46.108;3.390;2023-05-10T06:52:42;3.25;;;1.65;;
36501;SDS011;25393;46.108;3.390;2023-05-10T06:55:16;6.18;;;1.52;;
36501;SDS011;25393;46.108;3.390;2023-05-10T06:57:46;3.33;;;1.30;;
36501;SDS011;25393;46.108;3.390;2023-05-10T07:00:17;9.40;;;1.52;;
36501;SDS011;25393;46.108;3.390;2023-05-10T07:02:45;3.72;;;1.48;;
36501;SDS011;25393;46.108;3.390;2023-05-10T07:05:13;10.10;;;1.83;;
36501;SDS011;25393;46.108;3.390;2023-05-10T07:07:44;10.70;;;1.98;;
36501;SDS011;25393;46.108;3.390;2023-05-10T07:10:13;15.02;;;2.22;;
36501;SDS011;25393;46.108;3.390;2023-05-10T07:12:42;6.47;;;1.65;;
36501;SDS011;25393;46.108;3.390;2023-05-10T07:15:10;8.85;;;1.67;;
36501;SDS011;25393;46.108;3.390;2023-05-10T07:17:37;11.80;;;1.58;;
36501;SDS011;25393;46.108;3.390;2023-05-10T07:20:04;14.50;;;1.40;;
36501;SDS011;25393;46.108;3.390;2023-05-10T07:22:31;13.35;;;2.05;;
36501;SDS011;25393;46.108;3.390;2023-05-10T07:24:57;9.80;;;1.67;;
36501;SDS011;25393;46.108;3.390;2023-05-10T07:27:24;6.72;;;1.20;;
36501;SDS011;25393;46.108;3.390;2023-05-10T07:29:52;11.60;;;2.22;;
36501;SDS011;25393;46.108;3.390;2023-05-10T07:32:19;14.02;;;2.00;;
36501;SDS011;25393;46.108;3.390;2023-05-10T07:34:45;10.60;;;1.83;;
36501;SDS011;25393;46.108;3.390;2023-05-10T07:37:12;7.10;;;1.30;;
36501;SDS011;25393;46.108;3.390;2023-05-10T07:39:41;11.40;;;1.45;;
36501;SDS011;25393;46.108;3.390;2023-05-10T07:42:07;5.80;;;1.38;;
36501;SDS011;25393;46.108;3.390;2023-05-10T07:44:34;14.48;;;1.63;;
36501;SDS011;25393;46.108;3.390;2023-05-10T07:47:02;5.10;;;1.30;;
36501;SDS011;25393;46.108;3.390;2023-05-10T07:49:28;16.50;;;2.30;;
36501;SDS011;25393;46.108;3.390;2023-05-10T07:51:55;12.38;;;1.17;;
36501;SDS011;25393;46.108;3.390;2023-05-10T07:54:21;7.78;;;1.83;;
36501;SDS011;25393;46.108;3.390;2023-05-10T07:56:48;17.80;;;2.88;;
36501;SDS011;25393;46.108;3.390;2023-05-10T07:59:17;10.00;;;1.70;;
36501;SDS011;25393;46.108;3.390;2023-05-10T08:01:45;8.30;;;1.70;;
36501;SDS011;25393;46.108;3.390;2023-05-10T08:04:12;8.55;;;1.45;;
36501;SDS011;25393;46.108;3.390;2023-05-10T08:06:41;13.35;;;2.25;;
36501;SDS011;25393;46.108;3.390;2023-05-10T08:09:08;4.88;;;1.20;;
36501;SDS011;25393;46.108;3.390;2023-05-10T08:11:35;4.43;;;1.63;;
36501;SDS011;25393;46.108;3.390;2023-05-10T08:14:04;11.65;;;1.48;;
36501;SDS011;25393;46.108;3.390;2023-05-10T08:16:31;6.28;;;1.90;;
36501;SDS011;25393;46.108;3.390;2023-05-10T08:19:00;7.07;;;1.33;;
36501;SDS011;25393;46.108;3.390;2023-05-10T08:21:27;6.70;;;1.40;;
36501;SDS011;25393;46.108;3.390;2023-05-10T08:23:54;5.60;;;1.65;;
36501;SDS011;25393;46.108;3.390;2023-05-10T08:26:20;9.10;;;1.38;;
36501;SDS011;25393;46.108;3.390;2023-05-10T08:28:47;12.13;;;1.67;;
36501;SDS011;25393;46.108;3.390;2023-05-10T08:31:17;10.32;;;1.52;;
36501;SDS011;25393;46.108;3.390;2023-05-10T08:33:47;11.80;;;1.60;;
36501;SDS011;25393;46.108;3.390;2023-05-10T08:36:16;7.63;;;1.30;;
36501;SDS011;25393;46.108;3.390;2023-05-10T08:38:49;6.75;;;1.25;;
36501;SDS011;25393;46.108;3.390;2023-05-10T08:41:20;8.65;;;1.58;;
36501;SDS011;25393;46.108;3.390;2023-05-10T08:43:51;5.32;;;1.42;;
36501;SDS011;25393;46.108;3.390;2023-05-10T08:46:23;6.85;;;1.48;;
36501;SDS011;25393;46.108;3.390;2023-05-10T08:48:50;7.10;;;1.13;;
36501;SDS011;25393;46.108;3.390;2023-05-10T08:51:19;9.88;;;1.58;;
36501;SDS011;25393;46.108;3.390;2023-05-10T08:53:48;6.75;;;1.65;;
36501;SDS011;25393;46.108;3.390;2023-05-10T08:56:16;23.73;;;2.60;;
36501;SDS011;25393;46.108;3.390;2023-05-10T08:58:46;6.63;;;1.33;;
36501;SDS011;25393;46.108;3.390;2023-05-10T09:01:14;7.32;;;1.20;;
36501;SDS011;25393;46.108;3.390;2023-05-10T09:03:47;8.70;;;1.63;;
36501;SDS011;25393;46.108;3.390;2023-05-10T09:06:17;7.15;;;1.35;;
36501;SDS011;25393;46.108;3.390;2023-05-10T09:08:47;6.20;;;1.48;;
36501;SDS011;25393;46.108;3.390;2023-05-10T09:11:17;8.60;;;1.50;;
36501;SDS011;25393;46.108;3.390;2023-05-10T09:13:47;8.75;;;1.60;;
36501;SDS011;25393;46.108;3.390;2023-05-10T09:16:16;5.80;;;1.25;;
36501;SDS011;25393;46.108;3.390;2023-05-10T09:18:47;6.22;;;1.15;;
36501;SDS011;25393;46.108;3.390;2023-05-10T09:21:15;9.80;;;1.63;;
36501;SDS011;25393;46.108;3.390;2023-05-10T09:23:43;2.92;;;1.27;;
36501;SDS011;25393;46.108;3.390;2023-05-10T09:26:16;13.77;;;2.35;;
36501;SDS011;25393;46.108;3.390;2023-05-10T09:28:51;12.63;;;1.52;;
36501;SDS011;25393;46.108;3.390;2023-05-10T09:31:23;6.72;;;1.17;;
36501;SDS011;25393;46.108;3.390;2023-05-10T09:33:51;8.88;;;1.95;;
36501;SDS011;25393;46.108;3.390;2023-05-10T09:36:19;17.92;;;2.28;;
36501;SDS011;25393;46.108;3.390;2023-05-10T09:38:50;9.48;;;1.52;;
36501;SDS011;25393;46.108;3.390;2023-05-10T09:41:21;5.60;;;1.30;;
36501;SDS011;25393;46.108;3.390;2023-05-10T09:43:49;7.70;;;1.55;;
36501;SDS011;25393;46.108;3.390;2023-05-10T09:46:15;8.63;;;1.38;;
36501;SDS011;25393;46.108;3.390;2023-05-10T09:48:46;10.20;;;1.60;;
36501;SDS011;25393;46.108;3.390;2023-05-10T09:51:20;8.88;;;2.05;;
36501;SDS011;25393;46.108;3.390;2023-05-10T09:53:47;11.70;;;2.38;;
36501;SDS011;25393;46.108;3.390;2023-05-10T09:56:35;4.63;;;1.30;;
36501;SDS011;25393;46.108;3.390;2023-05-10T09:59:05;7.88;;;1.58;;
36501;SDS011;25393;46.108;3.390;2023-05-10T10:01:37;9.10;;;1.58;;
36501;SDS011;25393;46.108;3.390;2023-05-10T10:04:04;4.70;;;1.52;;
36501;SDS011;25393;46.108;3.390;2023-05-10T10:06:37;5.78;;;1.13;;
36501;SDS011;25393;46.108;3.390;2023-05-10T10:09:07;12.15;;;1.60;;
36501;SDS011;25393;46.108;3.390;2023-05-10T10:11:38;5.53;;;1.23;;
36501;SDS011;25393;46.108;3.390;2023-05-10T10:14:05;9.52;;;1.80;;
36501;SDS011;25393;46.108;3.390;2023-05-10T10:16:31;7.88;;;1.45;;
36501;SDS011;25393;46.108;3.390;2023-05-10T10:18:58;6.97;;;1.58;;
36501;SDS011;25393;46.108;3.390;2023-05-10T10:21:25;5.30;;;1.00;;
36501;SDS011;25393;46.108;3.390;2023-05-10T10:23:53;9.43;;;1.33;;
36501;SDS011;25393;46.108;3.390;2023-05-10T10:26:19;6.90;;;1.48;;
36501;SDS011;25393;46.108;3.390;2023-05-10T10:29:06;4.55;;;1.40;;
36501;SDS011;25393;46.108;3.390;2023-05-10T10:34:46;8.88;;;1.27;;
36501;SDS011;25393;46.108;3.390;2023-05-10T10:37:13;7.25;;;1.10;;
36501;SDS011;25393;46.108;3.390;2023-05-10T10:39:42;9.95;;;1.50;;
36501;SDS011;25393;46.108;3.390;2023-05-10T10:42:09;5.13;;;1.67;;
36501;SDS011;25393;46.108;3.390;2023-05-10T10:44:36;7.38;;;1.38;;
36501;SDS011;25393;46.108;3.390;2023-05-10T10:49:51;12.13;;;1.48;;
36501;SDS011;25393;46.108;3.390;2023-05-10T10:52:30;9.13;;;1.33;;
36501;SDS011;25393;46.108;3.390;2023-05-10T11:07:55;5.32;;;0.98;;
36501;SDS011;25393;46.108;3.390;2023-05-10T11:10:23;6.78;;;1.52;;
36501;SDS011;25393;46.108;3.390;2023-05-10T11:12:51;9.15;;;1.38;;
36501;SDS011;25393;46.108;3.390;2023-05-10T11:15:19;7.60;;;1.85;;
36501;SDS011;25393;46.108;3.390;2023-05-10T11:17:49;8.15;;;1.35;;
36501;SDS011;25393;46.108;3.390;2023-05-10T11:20:20;7.10;;;1.45;;
36501;SDS011;25393;46.108;3.390;2023-05-10T11:22:51;10.35;;;2.30;;
36501;SDS011;25393;46.108;3.390;2023-05-10T11:25:18;7.40;;;1.40;;
36501;SDS011;25393;46.108;3.390;2023-05-10T11:27:48;14.77;;;1.40;;
36501;SDS011;25393;46.108;3.390;2023-05-10T11:30:17;8.00;;;1.50;;
36501;SDS011;25393;46.108;3.390;2023-05-10T11:32:45;4.38;;;1.00;;
36501;SDS011;25393;46.108;3.390;2023-05-10T11:35:14;6.32;;;0.95;;
36501;SDS011;25393;46.108;3.390;2023-05-10T11:37:43;7.40;;;1.35;;
36501;SDS011;25393;46.108;3.390;2023-05-10T11:40:14;4.50;;;1.30;;
36501;SDS011;25393;46.108;3.390;2023-05-10T11:42:42;12.32;;;1.27;;
36501;SDS011;25393;46.108;3.390;2023-05-10T11:45:08;3.13;;;1.00;;
36501;SDS011;25393;46.108;3.390;2023-05-10T11:47:35;6.28;;;1.23;;
36501;SDS011;25393;46.108;3.390;2023-05-10T11:50:03;3.53;;;1.00;;
36501;SDS011;25393;46.108;3.390;2023-05-10T11:52:34;3.53;;;1.40;;
36501;SDS011;25393;46.108;3.390;2023-05-10T11:55:02;4.32;;;1.02;;
36501;SDS011;25393;46.108;3.390;2023-05-10T11:57:29;2.75;;;1.00;;
36501;SDS011;25393;46.108;3.390;2023-05-10T11:59:57;9.95;;;2.00;;
36501;SDS011;25393;46.108;3.390;2023-05-10T12:02:24;14.60;;;2.17;;
36501;SDS011;25393;46.108;3.390;2023-05-10T12:04:51;4.78;;;1.38;;
36501;SDS011;25393;46.108;3.390;2023-05-10T12:07:18;2.75;;;1.02;;
36501;SDS011;25393;46.108;3.390;2023-05-10T12:10:01;5.95;;;1.42;;
36501;SDS011;25393;46.108;3.390;2023-05-10T12:12:45;4.32;;;1.55;;
36501;SDS011;25393;46.108;3.390;2023-05-10T12:15:18;7.00;;;1.40;;
36501;SDS011;25393;46.108;3.390;2023-05-10T12:17:50;5.97;;;1.65;;
36501;SDS011;25393;46.108;3.390;2023-05-10T12:20:20;11.73;;;1.33;;
36501;SDS011;25393;46.108;3.390;2023-05-10T12:22:49;9.13;;;1.77;;
36501;SDS011;25393;46.108;3.390;2023-05-10T12:25:23;7.72;;;3.78;;
36501;SDS011;25393;46.108;3.390;2023-05-10T12:27:54;3.53;;;2.33;;
36501;SDS011;25393;46.108;3.390;2023-05-10T12:32:49;6.38;;;1.52;;
36501;SDS011;25393;46.108;3.390;2023-05-10T12:35:19;13.55;;;2.67;;
36501;SDS011;25393;46.108;3.390;2023-05-10T12:37:50;6.28;;;1.25;;
36501;SDS011;25393;46.108;3.390;2023-05-10T12:40:17;7.43;;;1.55;;
36501;SDS011;25393;46.108;3.390;2023-05-10T12:42:44;7.70;;;1.23;;
36501;SDS011;25393;46.108;3.390;2023-05-10T12:45:13;5.03;;;1.20;;
36501;SDS011;25393;46.108;3.390;2023-05-10T12:47:43;6.43;;;2.75;;
36501;SDS011;25393;46.108;3.390;2023-05-10T12:50:10;5.05;;;1.88;;
36501;SDS011;25393;46.108;3.390;2023-05-10T12:52:37;3.92;;;1.08;;
36501;SDS011;25393;46.108;3.390;2023-05-10T12:55:03;6.63;;;3.65;;
36501;SDS011;25393;46.108;3.390;2023-05-10T12:57:30;9.52;;;3.00;;
36501;SDS011;25393;46.108;3.390;2023-05-10T12:59:57;6.47;;;3.03;;
36501;SDS011;25393;46.108;3.390;2023-05-10T13:02:23;7.68;;;3.03;;
36501;SDS011;25393;46.108;3.390;2023-05-10T13:04:50;4.32;;;3.20;;
36501;SDS011;25393;46.108;3.390;2023-05-10T13:07:17;6.32;;;3.63;;
36501;SDS011;25393;46.108;3.390;2023-05-10T13:09:43;8.57;;;3.38;;
36501;SDS011;25393;46.108;3.390;2023-05-10T13:12:12;6.18;;;1.23;;
36501;SDS011;25393;46.108;3.390;2023-05-10T13:14:48;5.95;;;0.88;;
36501;SDS011;25393;46.108;3.390;2023-05-10T13:17:14;10.00;;;1.10;;
36501;SDS011;25393;46.108;3.390;2023-05-10T13:19:49;5.03;;;1.52;;
36501;SDS011;25393;46.108;3.390;2023-05-10T13:22:19;5.65;;;1.20;;
36501;SDS011;25393;46.108;3.390;2023-05-10T13:25:01;5.00;;;1.92;;
36501;SDS011;25393;46.108;3.390;2023-05-10T13:27:28;10.65;;;3.70;;
36501;SDS011;25393;46.108;3.390;2023-05-10T13:29:55;6.78;;;3.40;;
36501;SDS011;25393;46.108;3.390;2023-05-10T13:32:22;14.43;;;3.85;;
36501;SDS011;25393;46.108;3.390;2023-05-10T13:34:48;6.22;;;3.10;;
36501;SDS011;25393;46.108;3.390;2023-05-10T13:37:15;3.90;;;3.20;;
36501;SDS011;25393;46.108;3.390;2023-05-10T13:39:49;7.15;;;2.92;;
36501;SDS011;25393;46.108;3.390;2023-05-10T13:42:19;3.22;;;2.88;;
36501;SDS011;25393;46.108;3.390;2023-05-10T13:44:45;4.50;;;3.13;;
36501;SDS011;25393;46.108;3.390;2023-05-10T13:47:19;4.13;;;3.40;;
36501;SDS011;25393;46.108;3.390;2023-05-10T13:49:47;4.93;;;3.45;;
36501;SDS011;25393;46.108;3.390;2023-05-10T13:52:14;7.65;;;3.70;;
36501;SDS011;25393;46.108;3.390;2023-05-10T13:54:42;3.63;;;1.30;;
36501;SDS011;25393;46.108;3.390;2023-05-10T13:57:09;6.20;;;0.95;;
36501;SDS011;25393;46.108;3.390;2023-05-10T13:59:36;8.43;;;2.42;;
36501;SDS011;25393;46.108;3.390;2023-05-10T14:02:02;8.15;;;1.38;;
36501;SDS011;25393;46.108;3.390;2023-05-10T14:04:29;5.13;;;0.93;;
36501;SDS011;25393;46.108;3.390;2023-05-10T14:06:56;3.25;;;0.93;;
36501;SDS011;25393;46.108;3.390;2023-05-10T14:09:23;2.40;;;0.70;;
36501;SDS011;25393;46.108;3.390;2023-05-10T14:11:49;4.25;;;1.08;;
36501;SDS011;25393;46.108;3.390;2023-05-10T14:14:19;4.95;;;3.15;;
36501;SDS011;25393;46.108;3.390;2023-05-10T14:16:49;3.15;;;2.78;;
36501;SDS011;25393;46.108;3.390;2023-05-10T14:19:18;3.22;;;2.92;;
36501;SDS011;25393;46.108;3.390;2023-05-10T14:21:48;5.65;;;3.15;;
36501;SDS011;25393;46.108;3.390;2023-05-10T14:24:14;8.38;;;3.47;;
36501;SDS011;25393;46.108;3.390;2023-05-10T14:26:44;4.20;;;3.60;;
36501;SDS011;25393;46.108;3.390;2023-05-10T14:29:13;5.72;;;3.35;;
36501;SDS011;25393;46.108;3.390;2023-05-10T14:31:43;9.07;;;2.90;;
36501;SDS011;25393;46.108;3.390;2023-05-10T14:34:09;8.23;;;3.15;;
36501;SDS011;25393;46.108;3.390;2023-05-10T14:36:36;6.85;;;3.30;;
36501;SDS011;25393;46.108;3.390;2023-05-10T14:39:02;3.78;;;3.30;;
36501;SDS011;25393;46.108;3.390;2023-05-10T14:41:30;4.72;;;3.20;;
36501;SDS011;25393;46.108;3.390;2023-05-10T14:43:57;3.47;;;3.17;;
36501;SDS011;25393;46.108;3.390;2023-05-10T14:46:23;6.63;;;3.38;;
36501;SDS011;25393;46.108;3.390;2023-05-10T14:48:50;4.15;;;3.30;;
36501;SDS011;25393;46.108;3.390;2023-05-10T14:51:16;6.70;;;3.45;;
36501;SDS011;25393;46.108;3.390;2023-05-10T14:53:44;5.70;;;3.03;;
36501;SDS011;25393;46.108;3.390;2023-05-10T14:56:11;3.65;;;3.28;;
36501;SDS011;25393;46.108;3.390;2023-05-10T14:58:37;5.55;;;2.10;;
36501;SDS011;25393;46.108;3.390;2023-05-10T15:01:04;6.53;;;0.80;;
36501;SDS011;25393;46.108;3.390;2023-05-10T15:03:31;1.13;;;0.80;;
36501;SDS011;25393;46.108;3.390;2023-05-10T15:05:58;2.53;;;0.90;;
36501;SDS011;25393;46.108;3.390;2023-05-10T15:08:25;3.20;;;1.13;;
36501;SDS011;25393;46.108;3.390;2023-05-10T15:10:51;3.17;;;0.65;;
36501;SDS011;25393;46.108;3.390;2023-05-10T15:13:21;6.45;;;0.88;;
36501;SDS011;25393;46.108;3.390;2023-05-10T15:15:51;4.70;;;0.80;;
36501;SDS011;25393;46.108;3.390;2023-05-10T15:18:20;6.75;;;0.60;;
36501;SDS011;25393;46.108;3.390;2023-05-10T15:20:48;4.15;;;1.50;;
36501;SDS011;25393;46.108;3.390;2023-05-10T15:23:18;3.55;;;0.65;;
36501;SDS011;25393;46.108;3.390;2023-05-10T15:25:51;1.83;;;0.57;;
36501;SDS011;25393;46.108;3.390;2023-05-10T15:28:21;5.20;;;1.00;;
36501;SDS011;25393;46.108;3.390;2023-05-10T15:30:51;2.08;;;0.57;;
36501;SDS011;25393;46.108;3.390;2023-05-10T15:33:21;1.58;;;0.75;;
36501;SDS011;25393;46.108;3.390;2023-05-10T15:35:51;2.85;;;0.70;;
36501;SDS011;25393;46.108;3.390;2023-05-10T15:38:22;3.60;;;1.33;;
36501;SDS011;25393;46.108;3.390;2023-05-10T15:40:55;1.95;;;0.52;;
36501;SDS011;25393;46.108;3.390;2023-05-10T15:43:23;4.13;;;0.70;;
36501;SDS011;25393;46.108;3.390;2023-05-10T15:45:52;2.53;;;0.77;;